Time;durP1;ratioP1;P1;durP2;ratioP2;P2;SDS_P1;SDS_P2;PMS_P1;PMS_P2;Temp;Humidity;BMP_temperature;BMP_pressure;BME280_temperature;BME280_humidity;BME280_pressure;Samples;Min_cycle;Max_cycle;Signal;HPM_P1;HPM_P2
2021/05/12 00:00:11;;;;;;;1.60;0.60;;;15.00;74.90;;;;;;2365807;53;20950;-70
2021/05/12 00:02:38;;;;;;;1.60;0.70;;;15.00;75.00;;;;;;2544929;53;20951;-71
2021/05/12 00:05:05;;;;;;;1.85;0.50;;;15.00;75.10;;;;;;2319408;55;21567;-69
2021/05/12 00:07:31;;;;;;;0.98;0.50;;;15.00;75.30;;;;;;2330967;54;20908;-71
2021/05/12 00:09:58;;;;;;;1.50;0.70;;;15.00;75.40;;;;;;2339894;53;21806;-71
2021/05/12 00:12:24;;;;;;;2.90;0.88;;;15.00;75.40;;;;;;2343983;53;21004;-71
2021/05/12 00:14:50;;;;;;;1.40;0.50;;;15.00;75.40;;;;;;2343830;53;21841;-70
2021/05/12 00:17:19;;;;;;;1.62;0.60;;;15.00;75.40;;;;;;2338826;53;21453;-70
2021/05/12 00:19:55;;;;;;;1.73;0.60;;;15.00;75.40;;;;;;2333694;54;21710;-69
2021/05/12 00:22:39;;;;;;;1.83;0.60;;;14.90;75.40;;;;;;2340679;53;20982;-69
2021/05/12 00:25:07;;;;;;;1.25;0.52;;;15.00;75.50;;;;;;2365459;53;21482;-70
2021/05/12 00:27:33;;;;;;;1.12;0.50;;;14.90;75.50;;;;;;2370272;52;22336;-72
2021/05/12 00:30:00;;;;;;;2.85;0.62;;;14.90;75.60;;;;;;2612604;52;20918;-71
2021/05/12 00:32:26;;;;;;;1.37;0.60;;;15.00;75.60;;;;;;2362729;53;20960;-70
2021/05/12 00:34:53;;;;;;;2.65;0.68;;;15.00;75.70;;;;;;2361027;53;20930;-70
2021/05/12 00:37:19;;;;;;;2.25;0.80;;;15.00;75.70;;;;;;2365501;53;20950;-71
2021/05/12 00:39:46;;;;;;;0.82;0.50;;;15.00;75.80;;;;;;2560367;52;20910;-70
2021/05/12 00:42:12;;;;;;;1.12;0.40;;;15.00;75.80;;;;;;2602968;52;21017;-70
2021/05/12 00:44:38;;;;;;;1.62;0.70;;;15.00;75.70;;;;;;2368339;53;20986;-68
2021/05/12 00:47:05;;;;;;;1.42;0.52;;;15.00;75.70;;;;;;2358816;53;20910;-71
2021/05/12 00:49:40;;;;;;;1.15;0.50;;;15.00;75.70;;;;;;2365743;53;21486;-70
2021/05/12 00:52:11;;;;;;;1.45;0.60;;;15.00;75.60;;;;;;2368462;53;20982;-70
2021/05/12 00:54:37;;;;;;;1.52;0.60;;;15.00;75.50;;;;;;2356997;53;20975;-71
2021/05/12 00:57:04;;;;;;;1.77;0.70;;;14.90;75.40;;;;;;2365690;53;20922;-68
2021/05/12 00:59:34;;;;;;;1.23;0.60;;;14.90;75.30;;;;;;2365995;53;20910;-70
2021/05/12 01:02:00;;;;;;;2.72;0.95;;;15.00;75.40;;;;;;2487537;52;20969;-69
2021/05/12 01:04:27;;;;;;;1.30;0.50;;;14.90;75.30;;;;;;2366137;53;20931;-69
2021/05/12 01:06:53;;;;;;;1.40;0.65;;;14.90;75.40;;;;;;2365729;53;21963;-69
2021/05/12 01:09:20;;;;;;;1.65;0.60;;;14.90;75.50;;;;;;2361766;53;20989;-71
2021/05/12 01:11:47;;;;;;;1.80;0.65;;;14.90;75.50;;;;;;2352995;53;20958;-67
2021/05/12 01:14:13;;;;;;;2.22;0.80;;;14.90;75.40;;;;;;2365527;53;20926;-69
2021/05/12 01:16:42;;;;;;;2.03;0.90;;;14.90;75.50;;;;;;2362133;53;20924;-70
2021/05/12 01:19:09;;;;;;;1.80;0.70;;;14.90;75.40;;;;;;2362692;53;21518;-69
2021/05/12 01:21:35;;;;;;;2.08;0.80;;;14.90;75.40;;;;;;2366260;53;21003;-72
2021/05/12 01:24:01;;;;;;;2.25;0.62;;;14.90;75.50;;;;;;2365652;53;20918;-69
2021/05/12 01:26:27;;;;;;;1.73;0.85;;;14.90;75.50;;;;;;2360522;53;20989;-70
2021/05/12 01:28:55;;;;;;;1.25;0.65;;;14.90;75.40;;;;;;2353026;53;21463;-69
2021/05/12 01:32:26;;;;;;;2.45;1.00;;;14.90;75.50;;;;;;2366007;53;21624;-69
2021/05/12 01:34:53;;;;;;;3.08;1.10;;;14.90;75.00;;;;;;2366515;53;20942;-69
2021/05/12 01:37:22;;;;;;;1.52;0.80;;;14.80;75.20;;;;;;2437171;52;21019;-69
2021/05/12 01:39:48;;;;;;;2.28;1.02;;;14.80;75.20;;;;;;2348378;53;20957;-72
2021/05/12 01:42:15;;;;;;;1.77;0.77;;;14.80;75.40;;;;;;2364615;53;21063;-71
2021/05/12 01:44:41;;;;;;;2.37;1.00;;;14.70;75.40;;;;;;2356182;53;20923;-72
2021/05/12 01:47:08;;;;;;;2.80;0.82;;;14.70;75.40;;;;;;2615724;52;20914;-68
2021/05/12 01:49:34;;;;;;;1.98;0.90;;;14.70;75.30;;;;;;2355859;53;20934;-68
2021/05/12 01:52:00;;;;;;;2.40;1.00;;;14.70;75.20;;;;;;2365043;53;20941;-69
2021/05/12 01:54:26;;;;;;;2.78;0.98;;;14.70;75.20;;;;;;2362133;53;20915;-69
2021/05/12 01:56:54;;;;;;;2.20;1.00;;;14.60;75.00;;;;;;2365536;53;20963;-72
2021/05/12 01:59:21;;;;;;;2.62;0.90;;;14.60;74.80;;;;;;2343686;53;20933;-70
2021/05/12 02:01:47;;;;;;;1.65;0.70;;;14.50;74.70;;;;;;2607700;52;20935;-71
2021/05/12 02:04:13;;;;;;;2.47;0.65;;;14.50;74.90;;;;;;2365706;53;20943;-71
2021/05/12 02:06:40;;;;;;;1.15;0.52;;;14.50;75.20;;;;;;2359668;53;21000;-69
2021/05/12 02:09:08;;;;;;;1.85;0.60;;;14.40;75.40;;;;;;2364602;53;20951;-72
2021/05/12 02:11:35;;;;;;;1.35;0.65;;;14.40;75.60;;;;;;2362177;53;20967;-67
2021/05/12 02:14:03;;;;;;;2.90;0.98;;;14.40;75.80;;;;;;2364268;53;21179;-70
2021/05/12 02:16:30;;;;;;;2.65;0.85;;;14.40;75.80;;;;;;2350417;53;20968;-68
2021/05/12 02:18:56;;;;;;;1.50;0.62;;;14.40;75.90;;;;;;2357217;53;20907;-69
2021/05/12 02:21:23;;;;;;;1.70;0.75;;;14.40;76.00;;;;;;2365666;53;20967;-68
2021/05/12 02:23:49;;;;;;;1.73;0.80;;;14.40;76.00;;;;;;2322522;53;20972;-70
2021/05/12 02:26:15;;;;;;;1.70;0.70;;;14.40;75.80;;;;;;2471763;52;20977;-70
2021/05/12 02:28:42;;;;;;;1.52;0.70;;;14.40;75.70;;;;;;2362116;53;21041;-69
2021/05/12 02:31:08;;;;;;;1.90;0.82;;;14.40;75.60;;;;;;2369413;52;20915;-68
2021/05/12 02:33:34;;;;;;;3.05;0.90;;;14.40;75.40;;;;;;2369254;53;21042;-69
2021/05/12 02:36:01;;;;;;;1.90;0.80;;;14.40;75.50;;;;;;2357842;53;20922;-70
2021/05/12 02:38:27;;;;;;;4.43;0.70;;;14.40;75.40;;;;;;2365528;53;20978;-68
2021/05/12 02:40:53;;;;;;;3.87;0.75;;;14.30;75.40;;;;;;2366304;53;20917;-71
2021/05/12 02:43:21;;;;;;;2.00;0.90;;;14.30;75.40;;;;;;2363932;53;20979;-71
2021/05/12 02:45:48;;;;;;;1.83;0.70;;;14.30;75.00;;;;;;2597826;52;20923;-69
2021/05/12 02:48:14;;;;;;;2.28;0.65;;;14.30;74.50;;;;;;2365945;53;20980;-70
2021/05/12 02:50:42;;;;;;;1.80;0.70;;;14.20;74.20;;;;;;2368665;53;20998;-68
2021/05/12 02:53:08;;;;;;;1.62;0.55;;;14.10;74.10;;;;;;2355856;53;20907;-68
2021/05/12 02:55:34;;;;;;;1.10;0.60;;;14.10;74.20;;;;;;2366057;53;20917;-68
2021/05/12 02:58:03;;;;;;;1.62;0.60;;;14.10;74.20;;;;;;2366057;53;21054;-71
2021/05/12 03:00:29;;;;;;;1.27;0.65;;;14.00;74.20;;;;;;2365983;53;20918;-70
2021/05/12 03:02:56;;;;;;;2.22;0.60;;;14.00;74.30;;;;;;2366112;53;21537;-69
2021/05/12 03:05:22;;;;;;;1.23;0.55;;;14.00;74.20;;;;;;2365999;53;20926;-69
2021/05/12 03:07:50;;;;;;;1.87;0.70;;;13.90;74.20;;;;;;2366384;53;20966;-69
2021/05/12 03:10:18;;;;;;;1.98;0.50;;;13.90;74.30;;;;;;2366269;53;20926;-68
2021/05/12 03:12:45;;;;;;;1.80;0.50;;;13.90;74.40;;;;;;2365581;53;20994;-71
2021/05/12 03:15:14;;;;;;;1.55;0.57;;;13.80;74.40;;;;;;2365500;53;21797;-69
2021/05/12 03:17:40;;;;;;;2.05;0.37;;;13.80;74.50;;;;;;2366574;53;21450;-68
2021/05/12 03:20:07;;;;;;;2.50;0.50;;;13.80;74.80;;;;;;2366492;53;21050;-67
2021/05/12 03:22:33;;;;;;;1.87;0.70;;;13.80;74.90;;;;;;2616875;52;21376;-71
2021/05/12 03:25:01;;;;;;;1.08;0.55;;;13.80;74.90;;;;;;2365940;53;21002;-70
2021/05/12 03:27:27;;;;;;;1.45;0.57;;;13.80;75.00;;;;;;2366275;53;20950;-69
2021/05/12 03:29:57;;;;;;;1.52;0.40;;;13.80;75.20;;;;;;2607050;52;20920;-69
2021/05/12 03:32:24;;;;;;;2.35;0.50;;;13.80;75.20;;;;;;2362816;53;20973;-67
2021/05/12 03:34:51;;;;;;;1.48;0.50;;;13.80;75.30;;;;;;2366059;53;21876;-69
2021/05/12 03:37:18;;;;;;;1.80;0.60;;;13.80;75.30;;;;;;2363438;53;20993;-69
2021/05/12 03:39:44;;;;;;;1.77;0.60;;;13.80;75.40;;;;;;2366124;53;20915;-70
2021/05/12 03:42:10;;;;;;;2.12;0.80;;;13.80;75.30;;;;;;2365870;53;20938;-67
2021/05/12 03:44:37;;;;;;;1.90;0.57;;;13.80;75.30;;;;;;2365690;53;20921;-71
2021/05/12 03:47:03;;;;;;;1.25;0.50;;;13.80;75.20;;;;;;2366018;53;20911;-67
2021/05/12 03:49:31;;;;;;;2.30;0.70;;;13.80;75.20;;;;;;2338900;53;21034;-69
2021/05/12 03:51:57;;;;;;;1.90;0.65;;;13.80;75.20;;;;;;2366631;53;20919;-71
2021/05/12 03:54:25;;;;;;;1.40;0.60;;;13.80;75.00;;;;;;2362262;53;22499;-69
2021/05/12 03:56:51;;;;;;;2.22;0.50;;;13.80;74.90;;;;;;2343165;53;21918;-68
2021/05/12 03:59:18;;;;;;;1.58;0.50;;;13.80;74.70;;;;;;2360081;53;21079;-71
2021/05/12 04:01:44;;;;;;;1.40;0.60;;;13.80;74.70;;;;;;2484893;52;21003;-70
2021/05/12 04:04:14;;;;;;;2.05;0.62;;;13.80;74.60;;;;;;2363344;53;21478;-69
2021/05/12 04:06:41;;;;;;;2.30;0.60;;;13.70;74.40;;;;;;2617350;52;21771;-70
2021/05/12 04:09:08;;;;;;;2.20;0.70;;;13.70;74.40;;;;;;2357722;53;20959;-68
2021/05/12 04:11:34;;;;;;;2.90;0.70;;;13.70;74.30;;;;;;2366082;53;20929;-71
2021/05/12 04:14:01;;;;;;;1.92;0.62;;;13.70;74.20;;;;;;2366205;53;20934;-71
2021/05/12 04:16:27;;;;;;;1.98;0.65;;;13.70;74.20;;;;;;2361284;53;20926;-68
2021/05/12 04:18:53;;;;;;;1.95;0.68;;;13.60;74.20;;;;;;2365917;53;20936;-68
2021/05/12 04:21:20;;;;;;;2.08;0.80;;;13.60;74.40;;;;;;2366118;53;20986;-67
2021/05/12 04:23:46;;;;;;;1.87;0.68;;;13.60;74.40;;;;;;2609796;52;20971;-68
2021/05/12 04:26:13;;;;;;;1.37;0.60;;;13.60;74.30;;;;;;2611216;52;20919;-68
2021/05/12 04:28:40;;;;;;;1.98;0.70;;;13.60;74.30;;;;;;2617637;52;20962;-69
2021/05/12 04:31:06;;;;;;;2.55;0.85;;;13.60;74.30;;;;;;2366397;53;20922;-70
2021/05/12 04:33:32;;;;;;;3.00;0.90;;;13.60;74.30;;;;;;2358697;53;21054;-70
2021/05/12 04:35:59;;;;;;;2.37;0.95;;;13.50;74.20;;;;;;2366078;53;20962;-69
2021/05/12 04:38:25;;;;;;;1.85;0.70;;;13.60;74.30;;;;;;2614482;52;21437;-67
2021/05/12 04:40:52;;;;;;;2.95;0.90;;;13.50;74.20;;;;;;2366311;53;20997;-71
2021/05/12 04:43:18;;;;;;;1.83;0.70;;;13.50;74.20;;;;;;2371596;52;20990;-69
2021/05/12 04:45:45;;;;;;;2.10;0.90;;;13.50;74.30;;;;;;2363870;53;20920;-67
2021/05/12 04:48:13;;;;;;;2.78;0.85;;;13.50;74.50;;;;;;2450635;53;20991;-70
2021/05/12 04:50:39;;;;;;;1.85;0.65;;;13.50;74.60;;;;;;2356768;53;21894;-69
2021/05/12 04:53:05;;;;;;;2.65;0.80;;;13.50;74.70;;;;;;2366039;53;20910;-70
2021/05/12 04:55:31;;;;;;;2.03;0.77;;;13.50;74.80;;;;;;2366160;53;20915;-71
2021/05/12 04:57:59;;;;;;;1.75;0.70;;;13.50;74.80;;;;;;2617457;52;20934;-70
2021/05/12 05:00:26;;;;;;;4.10;0.80;;;13.50;74.90;;;;;;2360952;53;20986;-70
2021/05/12 05:02:53;;;;;;;2.00;0.70;;;13.50;74.90;;;;;;2437613;52;20939;-71
2021/05/12 05:05:21;;;;;;;2.83;0.70;;;13.50;75.00;;;;;;2365729;53;21022;-71
2021/05/12 05:07:48;;;;;;;4.97;0.80;;;13.50;75.10;;;;;;2362908;53;21488;-68
2021/05/12 05:10:15;;;;;;;2.00;0.80;;;13.50;75.10;;;;;;2597784;52;20954;-67
2021/05/12 05:12:41;;;;;;;3.90;0.70;;;13.50;75.10;;;;;;2598501;52;21422;-70
2021/05/12 05:15:09;;;;;;;1.55;0.62;;;13.50;75.20;;;;;;2357066;53;21523;-70
2021/05/12 05:17:35;;;;;;;2.00;0.80;;;13.50;75.20;;;;;;2605106;52;20978;-68
2021/05/12 05:20:03;;;;;;;2.10;0.65;;;13.50;75.20;;;;;;2362136;53;20950;-70
2021/05/12 05:22:32;;;;;;;1.80;0.60;;;13.50;75.10;;;;;;2366111;53;20902;-66
2021/05/12 05:24:58;;;;;;;2.80;0.80;;;13.60;75.20;;;;;;2362095;53;21381;-68
2021/05/12 05:27:25;;;;;;;2.30;0.70;;;13.60;75.20;;;;;;2612072;52;20902;-70
2021/05/12 05:29:53;;;;;;;2.80;0.80;;;13.60;75.20;;;;;;2365778;53;20926;-69
2021/05/12 05:32:19;;;;;;;4.15;0.80;;;13.60;75.10;;;;;;2360882;53;20980;-68
2021/05/12 05:34:48;;;;;;;1.87;0.70;;;13.60;75.10;;;;;;2362484;53;20963;-67
2021/05/12 05:37:14;;;;;;;2.10;0.70;;;13.60;75.00;;;;;;2347934;53;20967;-68
2021/05/12 05:39:41;;;;;;;1.98;0.80;;;13.60;75.00;;;;;;2318268;54;20933;-67
2021/05/12 05:42:09;;;;;;;2.08;0.85;;;13.60;75.00;;;;;;2583984;53;20985;-68
2021/05/12 05:44:41;;;;;;;1.87;0.60;;;13.60;75.00;;;;;;2339019;53;21012;-67
2021/05/12 05:47:07;;;;;;;2.03;0.70;;;13.60;75.00;;;;;;2353938;53;20935;-69
2021/05/12 05:49:35;;;;;;;1.83;0.70;;;13.60;75.00;;;;;;2365906;53;21025;-68
2021/05/12 05:52:02;;;;;;;2.80;0.98;;;13.60;75.10;;;;;;2406998;52;20913;-70
2021/05/12 05:54:32;;;;;;;2.35;0.82;;;13.60;75.20;;;;;;2343549;53;20986;-67
2021/05/12 05:57:06;;;;;;;2.20;0.90;;;13.60;75.10;;;;;;2584058;53;21066;-67
2021/05/12 05:59:33;;;;;;;2.65;0.82;;;13.60;75.00;;;;;;2533840;53;20969;-69
2021/05/12 06:02:01;;;;;;;2.10;0.77;;;13.70;75.10;;;;;;2337510;53;20939;-68
2021/05/12 06:04:27;;;;;;;2.28;0.80;;;13.70;75.20;;;;;;2325389;53;21004;-67
2021/05/12 06:06:55;;;;;;;2.30;0.98;;;13.60;75.10;;;;;;2612346;52;21050;-68
2021/05/12 06:09:23;;;;;;;2.08;0.90;;;13.70;75.20;;;;;;2354979;53;20977;-70
2021/05/12 06:11:49;;;;;;;2.35;0.93;;;13.70;75.10;;;;;;2536435;53;21019;-70
2021/05/12 06:14:16;;;;;;;2.60;1.10;;;13.70;75.20;;;;;;2311256;53;21560;-68
2021/05/12 06:16:42;;;;;;;2.37;0.90;;;13.70;75.30;;;;;;2319986;54;22402;-67
2021/05/12 06:19:09;;;;;;;2.33;0.70;;;13.70;75.40;;;;;;2342841;53;21020;-70
2021/05/12 06:21:38;;;;;;;2.60;1.20;;;13.70;75.60;;;;;;2583246;53;21079;-67
2021/05/12 06:24:05;;;;;;;2.72;0.90;;;13.70;75.60;;;;;;2494822;53;21710;-67
2021/05/12 06:26:31;;;;;;;2.00;0.82;;;13.80;75.60;;;;;;2338303;53;20976;-67
2021/05/12 06:28:58;;;;;;;1.90;0.85;;;13.80;75.50;;;;;;2336445;53;21828;-69
2021/05/12 06:31:26;;;;;;;2.85;0.82;;;13.80;75.50;;;;;;2324569;54;20927;-67
2021/05/12 06:33:54;;;;;;;2.42;0.80;;;13.80;75.40;;;;;;2324582;54;20927;-69
2021/05/12 06:36:20;;;;;;;2.72;0.70;;;13.80;75.40;;;;;;2307454;54;21480;-70
2021/05/12 06:39:02;;;;;;;2.67;0.88;;;13.90;75.40;;;;;;2334152;54;20930;-70
2021/05/12 06:41:30;;;;;;;1.55;0.70;;;13.90;75.40;;;;;;2583004;53;21012;-69
2021/05/12 06:44:01;;;;;;;1.67;0.70;;;13.90;75.40;;;;;;2319099;54;20959;-69
2021/05/12 06:46:27;;;;;;;1.87;0.70;;;13.90;75.30;;;;;;2557426;53;21012;-69
2021/05/12 06:48:54;;;;;;;2.85;1.00;;;13.90;75.30;;;;;;2333425;54;21040;-70
2021/05/12 06:51:20;;;;;;;3.37;0.90;;;13.90;75.40;;;;;;2344156;53;21710;-68
2021/05/12 06:53:47;;;;;;;1.90;0.82;;;14.00;75.60;;;;;;2343874;53;21378;-71
2021/05/12 06:56:14;;;;;;;2.62;1.10;;;14.00;75.60;;;;;;2344262;53;21049;-70
2021/05/12 06:58:42;;;;;;;3.10;0.88;;;14.00;75.70;;;;;;2340585;53;20970;-69
2021/05/12 07:01:09;;;;;;;3.80;1.00;;;14.00;75.70;;;;;;2590214;52;20917;-69
2021/05/12 07:03:35;;;;;;;1.70;0.80;;;14.00;75.70;;;;;;2348576;53;20990;-70
2021/05/12 07:06:02;;;;;;;1.87;0.82;;;14.00;75.90;;;;;;2367620;53;20929;-68
2021/05/12 07:08:29;;;;;;;2.50;1.00;;;14.10;76.20;;;;;;2615446;52;21880;-70
2021/05/12 07:10:55;;;;;;;2.05;0.90;;;14.10;76.40;;;;;;2354759;53;21688;-68
2021/05/12 07:13:21;;;;;;;2.67;0.93;;;14.20;76.70;;;;;;2371676;53;20957;-69
2021/05/12 07:15:48;;;;;;;2.22;1.05;;;14.20;76.70;;;;;;2372026;53;20915;-68
2021/05/12 07:18:17;;;;;;;1.87;1.00;;;14.30;76.70;;;;;;2364762;53;21022;-69
2021/05/12 07:20:45;;;;;;;3.08;1.10;;;14.30;76.70;;;;;;2358502;53;20934;-69
2021/05/12 07:23:18;;;;;;;2.22;0.90;;;14.40;76.80;;;;;;2624425;52;20970;-68
2021/05/12 07:25:45;;;;;;;3.85;1.30;;;14.50;76.80;;;;;;2371550;53;20978;-69
2021/05/12 07:28:13;;;;;;;2.95;1.10;;;14.50;76.50;;;;;;2354956;53;21934;-66
2021/05/12 07:30:41;;;;;;;2.53;0.98;;;14.60;76.60;;;;;;2621906;52;20930;-66
2021/05/12 07:33:07;;;;;;;4.50;0.95;;;14.60;76.60;;;;;;2351737;53;20934;-67
2021/05/12 07:35:36;;;;;;;3.20;1.30;;;14.70;76.80;;;;;;2351548;53;20946;-67
2021/05/12 07:38:03;;;;;;;3.05;1.40;;;14.70;76.80;;;;;;2610126;52;20955;-69
2021/05/12 07:40:31;;;;;;;2.35;1.02;;;14.80;76.90;;;;;;2605091;52;20919;-69
2021/05/12 07:43:00;;;;;;;3.22;1.30;;;14.90;77.20;;;;;;2372095;53;20934;-69
2021/05/12 07:45:26;;;;;;;4.53;1.20;;;14.90;77.10;;;;;;2623671;52;21486;-67
2021/05/12 07:48:02;;;;;;;5.50;1.10;;;15.00;77.30;;;;;;2371563;53;21623;-69
2021/05/12 07:50:30;;;;;;;2.15;0.98;;;15.10;77.40;;;;;;2370474;53;20946;-70
2021/05/12 07:52:57;;;;;;;3.17;1.30;;;15.10;77.40;;;;;;2363362;53;20957;-66
2021/05/12 07:55:24;;;;;;;2.85;1.27;;;15.20;77.40;;;;;;2341276;54;20922;-67
2021/05/12 07:57:50;;;;;;;4.10;1.50;;;15.30;77.70;;;;;;2351909;53;20966;-69
2021/05/12 08:00:17;;;;;;;4.10;1.83;;;15.40;77.70;;;;;;2371955;53;20938;-67
2021/05/12 08:02:44;;;;;;;4.20;2.03;;;15.50;77.80;;;;;;2371499;53;20966;-70
2021/05/12 08:05:11;;;;;;;2.62;1.40;;;15.60;78.00;;;;;;2387412;52;21034;-67
2021/05/12 08:07:40;;;;;;;2.95;1.40;;;15.70;77.50;;;;;;2347825;53;21913;-68
2021/05/12 08:10:07;;;;;;;2.83;1.23;;;15.80;77.20;;;;;;2621016;52;20910;-68
2021/05/12 08:12:33;;;;;;;6.15;1.30;;;15.80;77.30;;;;;;2369037;53;21566;-68
2021/05/12 08:15:00;;;;;;;2.75;1.10;;;16.00;77.30;;;;;;2553037;52;20998;-67
2021/05/12 08:17:26;;;;;;;3.33;1.12;;;16.00;76.70;;;;;;2369725;54;21752;-69
2021/05/12 08:19:53;;;;;;;3.58;1.08;;;16.00;76.60;;;;;;2334924;54;21293;-70
2021/05/12 08:22:19;;;;;;;2.58;1.00;;;16.10;76.40;;;;;;2409413;52;21400;-68
2021/05/12 08:24:46;;;;;;;3.08;0.80;;;16.20;76.10;;;;;;2371730;53;20915;-67
2021/05/12 08:27:12;;;;;;;3.55;1.20;;;16.20;75.80;;;;;;2371688;53;20919;-67
2021/05/12 08:29:43;;;;;;;2.95;1.10;;;16.20;75.50;;;;;;2371293;53;20922;-67
2021/05/12 08:32:14;;;;;;;3.08;1.45;;;16.30;74.90;;;;;;2351743;53;20923;-67
2021/05/12 08:34:41;;;;;;;4.70;1.40;;;16.30;74.60;;;;;;2624952;52;20990;-67
2021/05/12 08:37:07;;;;;;;2.75;1.10;;;16.30;74.10;;;;;;2372045;53;21021;-68
2021/05/12 08:39:34;;;;;;;2.33;1.12;;;16.30;74.30;;;;;;2369068;53;20959;-70
2021/05/12 08:42:00;;;;;;;2.45;1.30;;;16.40;74.70;;;;;;2354945;53;20933;-70
2021/05/12 08:44:26;;;;;;;3.75;1.20;;;16.40;74.80;;;;;;2625024;52;20954;-68
2021/05/12 08:46:54;;;;;;;5.65;1.50;;;16.40;74.90;;;;;;2352011;53;20974;-67
2021/05/12 08:49:22;;;;;;;2.75;1.27;;;16.40;74.70;;;;;;2370065;53;21002;-70
2021/05/12 08:51:49;;;;;;;3.17;1.10;;;16.50;75.10;;;;;;2623705;52;20970;-68
2021/05/12 08:54:17;;;;;;;3.87;1.25;;;16.50;75.60;;;;;;2372335;53;20971;-67
2021/05/12 08:56:43;;;;;;;2.50;1.02;;;16.60;76.00;;;;;;2350686;53;20947;-67
2021/05/12 08:59:09;;;;;;;3.15;1.20;;;16.70;76.40;;;;;;2624605;52;20926;-67
2021/05/12 09:01:36;;;;;;;2.45;1.00;;;16.80;76.10;;;;;;2371834;53;20918;-67
2021/05/12 09:04:03;;;;;;;8.25;1.12;;;16.80;75.80;;;;;;2372103;53;21351;-67
2021/05/12 09:06:32;;;;;;;3.55;1.25;;;16.90;75.10;;;;;;2352614;53;21002;-67
2021/05/12 09:08:59;;;;;;;3.47;1.10;;;16.90;74.70;;;;;;2516285;52;20978;-67
2021/05/12 09:11:27;;;;;;;3.28;1.10;;;17.00;75.10;;;;;;2358141;53;20906;-68
2021/05/12 09:13:53;;;;;;;3.05;1.10;;;17.10;75.60;;;;;;2371761;53;20958;-67
2021/05/12 09:16:24;;;;;;;2.95;1.30;;;17.20;76.40;;;;;;2371963;53;20982;-68
2021/05/12 09:19:07;;;;;;;4.05;1.23;;;17.30;76.70;;;;;;2351830;53;20943;-68
2021/05/12 09:21:56;;;;;;;3.42;1.48;;;17.50;74.90;;;;;;2338670;54;20973;-69
2021/05/12 09:24:30;;;;;;;4.30;1.30;;;17.50;74.50;;;;;;2344545;53;20937;-68
2021/05/12 09:27:01;;;;;;;2.60;1.00;;;17.50;73.90;;;;;;2344408;53;20968;-69
2021/05/12 09:29:36;;;;;;;3.35;1.00;;;17.60;72.80;;;;;;2344112;53;20925;-67
2021/05/12 09:32:10;;;;;;;2.65;1.02;;;17.60;73.10;;;;;;2360315;54;20932;-67
2021/05/12 09:35:03;;;;;;;3.62;1.40;;;17.60;74.10;;;;;;2478383;52;20989;-68
2021/05/12 09:37:37;;;;;;;3.25;1.05;;;17.70;73.90;;;;;;2344475;53;21532;-68
2021/05/12 09:40:16;;;;;;;4.22;1.00;;;17.70;73.90;;;;;;2343098;54;20947;-67
2021/05/12 09:42:42;;;;;;;3.20;1.15;;;17.70;73.70;;;;;;2372088;53;20934;-67
2021/05/12 09:45:22;;;;;;;5.35;1.17;;;17.70;74.00;;;;;;2541787;52;21006;-70
2021/05/12 09:47:50;;;;;;;4.03;1.20;;;17.80;73.50;;;;;;2624636;52;20981;-66
2021/05/12 09:50:35;;;;;;;4.72;1.62;;;17.90;74.10;;;;;;2372523;53;20934;-67
2021/05/12 09:53:04;;;;;;;2.65;1.00;;;17.90;73.40;;;;;;2584081;52;20966;-67
2021/05/12 09:55:37;;;;;;;2.92;1.00;;;18.00;74.60;;;;;;2340682;54;21065;-68
2021/05/12 09:58:08;;;;;;;3.25;1.08;;;18.10;73.40;;;;;;2352056;54;21001;-70
2021/05/12 10:00:39;;;;;;;4.18;1.00;;;18.20;73.00;;;;;;2595676;52;21404;-67
2021/05/12 10:03:06;;;;;;;3.10;1.07;;;18.20;73.40;;;;;;2375245;53;20971;-69
2021/05/12 10:06:02;;;;;;;4.05;1.20;;;18.20;73.80;;;;;;2371221;53;21204;-67
2021/05/12 10:08:35;;;;;;;3.42;1.17;;;18.30;73.40;;;;;;2352160;53;20923;-69
2021/05/12 10:11:03;;;;;;;2.95;0.90;;;18.50;74.70;;;;;;2582322;52;20979;-67
2021/05/12 10:13:30;;;;;;;2.55;0.93;;;18.50;74.90;;;;;;2371860;53;20934;-70
2021/05/12 10:15:56;;;;;;;2.70;0.70;;;18.60;74.50;;;;;;2360332;53;21013;-67
2021/05/12 10:18:22;;;;;;;3.03;0.93;;;18.70;74.10;;;;;;2364084;53;21001;-70
2021/05/12 10:20:49;;;;;;;3.40;0.90;;;18.70;73.40;;;;;;2371947;53;21009;-67
2021/05/12 10:23:15;;;;;;;4.22;1.00;;;18.80;73.10;;;;;;2371294;53;21823;-68
2021/05/12 10:25:41;;;;;;;2.22;0.85;;;18.80;72.90;;;;;;2356620;53;20938;-68
2021/05/12 10:28:08;;;;;;;3.58;0.90;;;18.80;72.70;;;;;;2366681;53;21357;-69
2021/05/12 10:30:34;;;;;;;1.70;0.70;;;18.80;72.50;;;;;;2372251;53;20955;-68
2021/05/12 10:33:03;;;;;;;1.95;0.82;;;18.80;72.40;;;;;;2353199;53;20986;-67
2021/05/12 10:35:33;;;;;;;2.78;0.90;;;18.80;72.00;;;;;;2623473;52;21400;-68
2021/05/12 10:38:00;;;;;;;3.50;0.98;;;18.80;71.50;;;;;;2357910;53;20926;-67
2021/05/12 10:40:28;;;;;;;3.35;0.95;;;18.80;71.70;;;;;;2362135;53;20894;-68
2021/05/12 10:43:25;;;;;;;2.72;1.00;;;18.70;70.50;;;;;;2371428;53;20990;-68
2021/05/12 10:46:22;;;;;;;3.17;1.00;;;18.70;70.40;;;;;;2371183;53;20982;-67
2021/05/12 10:49:51;;;;;;;1.77;0.68;;;18.70;69.70;;;;;;2550302;52;21383;-67
2021/05/12 10:52:18;;;;;;;5.40;1.02;;;18.60;71.20;;;;;;2373252;53;20910;-67
2021/05/12 10:54:51;;;;;;;2.37;0.95;;;18.60;71.80;;;;;;2348570;53;21924;-69
2021/05/12 11:10:49;;;;;;;7.10;1.30;;;18.70;71.10;;;;;;2352084;53;20966;-67
2021/05/12 11:13:18;;;;;;;;;;;19.00;71.30;;;;;;2361066;53;21053;-69
2021/05/12 11:16:07;;;;;;;2.77;0.70;;;19.10;71.60;;;;;;2620757;52;20069;-68
2021/05/12 11:18:52;;;;;;;3.10;0.60;;;19.10;71.80;;;;;;2435598;52;21363;-69
2021/05/12 11:21:26;;;;;;;2.95;0.80;;;19.20;71.80;;;;;;2372794;53;21414;-69
2021/05/12 11:24:54;;;;;;;3.83;0.85;;;19.20;71.60;;;;;;2372037;53;21010;-68
2021/05/12 11:31:30;;;;;;;3.40;0.77;;;19.20;71.70;;;;;;2357983;53;21011;-67
2021/05/12 11:33:57;;;;;;;2.30;0.52;;;19.20;71.50;;;;;;2350138;53;20959;-68
2021/05/12 11:36:28;;;;;;;3.70;0.70;;;19.20;71.50;;;;;;2474856;52;20990;-69
2021/05/12 11:38:55;;;;;;;3.12;0.68;;;19.20;71.20;;;;;;2365826;53;20914;-67
2021/05/12 11:41:22;;;;;;;2.92;0.62;;;19.30;71.50;;;;;;2351079;53;20931;-68
2021/05/12 11:43:54;;;;;;;2.95;0.60;;;19.30;71.30;;;;;;2371404;53;20982;-69
2021/05/12 11:46:30;;;;;;;3.22;0.88;;;19.40;70.90;;;;;;2375602;52;20965;-68
2021/05/12 11:49:22;;;;;;;2.00;0.60;;;19.40;70.00;;;;;;2371369;53;20921;-67
2021/05/12 11:51:49;;;;;;;1.85;0.70;;;19.40;70.60;;;;;;2406169;52;20950;-69
2021/05/12 11:54:22;;;;;;;2.12;0.60;;;19.40;70.60;;;;;;2370767;53;21742;-69
2021/05/12 11:56:50;;;;;;;5.32;0.75;;;19.40;70.00;;;;;;2371960;53;20934;-69
2021/05/12 11:59:22;;;;;;;2.42;0.60;;;19.50;71.10;;;;;;2371549;53;20985;-69
2021/05/12 12:01:55;;;;;;;2.03;0.60;;;19.50;71.60;;;;;;2371574;53;20938;-68
2021/05/12 12:04:30;;;;;;;3.50;0.70;;;19.60;71.90;;;;;;2373212;53;20995;-67
2021/05/12 12:06:57;;;;;;;4.20;0.70;;;19.70;72.20;;;;;;2372695;53;21009;-67
2021/05/12 12:09:27;;;;;;;2.60;0.68;;;19.70;72.00;;;;;;2371673;53;20960;-68
2021/05/12 12:11:54;;;;;;;2.37;0.80;;;19.80;72.50;;;;;;2371572;53;20934;-67
2021/05/12 12:14:33;;;;;;;3.55;0.80;;;19.90;73.00;;;;;;2371418;53;21451;-70
2021/05/12 12:16:59;;;;;;;2.53;0.70;;;20.10;72.10;;;;;;2624376;52;20973;-69
2021/05/12 12:19:26;;;;;;;4.60;0.73;;;20.20;71.90;;;;;;2360482;52;21030;-68
2021/05/12 12:21:54;;;;;;;1.98;0.70;;;20.30;71.80;;;;;;2371653;53;20977;-70
2021/05/12 12:24:23;;;;;;;2.60;0.70;;;20.30;72.60;;;;;;2371861;53;20930;-68
2021/05/12 12:26:54;;;;;;;4.30;0.80;;;20.50;73.20;;;;;;2371570;53;21006;-69
2021/05/12 12:29:21;;;;;;;2.10;0.65;;;20.60;74.20;;;;;;2371622;53;20926;-67
2021/05/12 12:31:49;;;;;;;1.30;0.52;;;20.70;74.30;;;;;;2574456;52;20946;-69
2021/05/12 12:34:28;;;;;;;2.20;0.62;;;20.90;74.30;;;;;;2363613;53;21811;-69
2021/05/12 12:37:06;;;;;;;2.72;0.70;;;21.00;72.60;;;;;;2347024;53;20929;-69
2021/05/12 12:39:53;;;;;;;5.20;0.98;;;21.00;70.30;;;;;;2353089;53;20938;-70
2021/05/12 12:42:36;;;;;;;2.55;0.77;;;21.10;70.60;;;;;;2374711;53;21399;-67
2021/05/12 12:45:21;;;;;;;;;;;21.00;69.60;;;;;;2375429;53;21765;-68
2021/05/12 12:47:52;;;;;;;1.75;0.60;;;21.00;68.70;;;;;;2405053;52;20085;-68
2021/05/12 12:50:18;;;;;;;2.37;0.70;;;20.90;69.50;;;;;;2368334;53;20986;-68
2021/05/12 12:52:48;;;;;;;3.42;1.12;;;20.80;70.10;;;;;;2340430;54;21061;-68
2021/05/12 12:55:18;;;;;;;3.03;0.98;;;20.70;70.30;;;;;;2528207;52;20990;-70
2021/05/12 12:57:55;;;;;;;2.15;0.80;;;20.60;70.00;;;;;;2351978;53;21445;-67
2021/05/12 13:00:45;;;;;;;3.05;0.80;;;20.60;69.60;;;;;;2509057;52;20926;-70
2021/05/12 13:03:25;;;;;;;2.62;0.80;;;20.50;70.50;;;;;;2354111;53;20918;-69
2021/05/12 13:05:58;;;;;;;2.72;0.65;;;20.50;70.30;;;;;;2378417;52;20974;-69
2021/05/12 13:08:29;;;;;;;2.75;0.70;;;20.50;70.90;;;;;;2351791;53;20940;-68
2021/05/12 13:11:13;;;;;;;2.15;0.80;;;20.50;71.20;;;;;;2358764;53;20934;-68
2021/05/12 13:13:48;;;;;;;2.00;0.73;;;20.40;70.70;;;;;;2498815;52;20958;-67
2021/05/12 13:16:34;;;;;;;5.00;0.82;;;20.50;72.00;;;;;;2371565;53;20927;-69